Hume, New York
Current Conditions -  °F | °C
As of 4:35 PM on Monday 24 Nov 2014 (Local Time) from KOLE Reporting Station
Broken Clouds Broken Clouds  
Wind Chill: 55°   Ceiling: 9000
Heat Index: 55°   Visibility: 10mi
Dew Point: 45°   Wind: 16mph
Humidity: 67%   Direction: 230°SW
Pressure: 29.42"   Gusts: 28mph
Location:  42.47°N, 78.14°W
Report Text: KOLE 242135Z AUTO 23014G24KT 210V270 10SM SCT047 SCT070 BKN090 13/07 A2942 RMK AO2
Loading
Personal Weather Stations






























Interactive Weather Map New forecast layout! Learn more

10-Day Weather Forecast

Advertisements
Track Severe Weather on mobile